Boulder City, Nevada Weather observations

Data are for observation ending at time listed.
 Day   Time    Ave.   Ave.  Ave.  Vector   Max.   Stn.    Total    Solar   Ave.  
  of    of     Air    Rel.  Wind   Wind    Wind   Baro.  Precip.   Rad.    Soil  
Year   Day     Temp.  Hum.  Speed  Dir.    Gust   Pres.                    Temp. 
2015   (PST)    F      %     mph   deg.    mph     mb.     in.     W/m2     F   
------------------------------------------------------------------------------
 212   17:00   92.8    27   12.0   226     22.3   931.7    0.00      44    108.6
 212   17:10   93.5    25   12.5   227     21.0   931.7    0.00      35    108.5
 212   17:20   91.7    27   12.1   236     21.0   931.4    0.00      29    108.3
 212   17:30   91.3    30   10.5   237     19.2   931.2    0.00      23    108.2
 212   17:40   93.7    23   10.2   210     16.7   930.9    0.00      18    108.0
 212   17:50   94.9    19   10.8   182     21.1   930.9    0.00      19    107.9
 212   18:00   96.6    16    7.5   208     16.4   931.0    0.00      21    107.7
 212   18:10   97.8    14    8.3   217     19.2   931.0    0.00      20    107.6
 212   18:20   98.7    14    2.4   196      7.5   931.1    0.00      16    107.4
 212   18:30   98.4    14    3.9   183      7.0   931.2    0.00      11    107.2
 212   18:40   98.0    14    4.9   195      9.1   931.3    0.00       4    107.0
 212   18:50   96.4    17    4.5   213      7.8   931.5    0.00       2    106.8
 212   19:00   94.1    23    8.0   208     14.3   931.8    0.00       0    106.5
 212   19:10   92.1    26    8.1   222     12.9   931.9    0.00       0    106.3
 212   19:20   91.7    27    5.9   224      9.9   931.9    0.00       0    106.2
 212   19:30   91.4    28    5.0   219      8.1   932.0    0.00       0    106.0
 212   19:40   91.1    29    5.2   205      9.0   932.2    0.00       0    105.8
 212   19:50   90.8    30    4.7   216      7.7   932.3    0.00       0    105.6
 212   20:00   90.6    30    3.7   227      7.6   932.4    0.00       0    105.4
 212   20:10   90.8    29    2.7   212      7.9   932.5    0.00       0    105.3
 212   20:20   91.0    28    0.7   181      3.3   932.5    0.00       0    105.1
 212   20:30   91.7    27    2.5   233      5.8   932.5    0.00       0    104.9
 212   20:40   92.0    27    2.0   220      3.4   932.5    0.00       0    104.8
 212   20:50   91.8    27    1.1   174      2.4   932.5    0.00       0    104.6
 212   21:00   91.8    27    1.5   175      4.8   932.5    0.00       0    104.4
 212   21:10   91.9    27    1.9   204      3.9   932.4    0.00       0    104.3
 212   21:20   91.7    28    1.5   228      3.7   932.3    0.00       0    104.1
 212   21:30   91.8    28    2.6   200      5.5   932.3    0.00       0    103.9
 212   21:40   91.7    28    1.3   226      4.2   932.3    0.00       0    103.8
 212   21:50   91.3    28    1.6   225      3.1   932.3    0.00       0    103.6
 212   22:00   90.9    28    1.3   241      2.5   932.2    0.00       0    103.4
 212   22:10   91.0    28    3.2   236      5.9   932.1    0.00       0    103.3
 212   22:20   91.4    27    3.4   212      5.9   932.1    0.00       0    103.1
 212   22:30   91.6    27    4.6   219      9.1   931.9    0.00       0    103.0
 212   22:40   91.5    27    4.5   219      7.6   931.8    0.00       0    102.8
 212   22:50   91.1    27    4.1   237      6.3   931.8    0.00       0    102.7
 212   23:00   90.6    28    4.2   234      6.0   931.8    0.00       0    102.5
 212   23:10   90.2    28    4.0   222      6.9   931.8    0.00       0    102.4
 212   23:20   90.2    28    3.7   216      6.8   931.7    0.00       0    102.2
 212   23:30   90.0    28    3.2   227      5.2   931.7    0.00       0    102.1
 212   23:40   89.9    29    2.7   222      4.4   931.7    0.00       0    101.9
 212   23:50   89.8    28    3.6   211      6.6   931.6    0.00       0    101.8
 213    0:00   89.3    30    3.4   208      7.4   931.6    0.00       0    101.6
 213    0:10   88.7    30    3.5   225      5.3   931.5    0.00       0    101.5
 213    0:20   88.6    30    2.0   214      3.4   931.5    0.00       0    101.4
 213    0:30   88.6    30    1.4   199      2.9   931.6    0.00       0    101.3
 213    0:40   88.3    30    1.3   216      2.3   931.5    0.00       0    101.1
 213    0:50   88.0    30    2.3   224      2.9   931.4    0.00       0    101.0
 213    1:00   87.8    30    2.7   227      4.1   931.3    0.00       0    100.9
 213    1:10   88.4    28    2.8   220      4.0   931.3    0.00       0    100.8
 213    1:20   88.7    27    3.0   225      4.1   931.2    0.00       0    100.7
 213    1:30   88.8    26    3.0   234      4.7   931.1    0.00       0    100.6
 213    1:40   89.3    26    2.0   212      5.6   931.2    0.00       0    100.4
 213    1:50   88.9    26    1.4   204      2.6   931.2    0.00       0    100.3
 213    2:00   88.5    27    2.5   238      5.2   931.1    0.00       0    100.2
 213    2:10   88.4    27    4.0   239      6.5   931.0    0.00       0    100.0
 213    2:20   88.5    28    3.7   223      6.4   931.0    0.00       0    99.9
 213    2:30   88.3    28    1.5   203      4.2   931.1    0.00       0    99.8
 213    2:40   87.8    28    2.2   209      3.3   931.2    0.00       0    99.7
 213    2:50   87.5    29    2.1   205      3.7   931.2    0.00       0    99.6
 213    3:00   87.2    29    2.7   223      3.7   931.2    0.00       0    99.5
 213    3:10   87.0    30    1.9   213      3.7   931.2    0.00       0    99.4
 213    3:20   86.5    30    1.7   206      2.5   931.2    0.00       0    99.2
 213    3:30   86.5    31    2.2   215      3.1   931.1    0.00       0    99.2
 213    3:40   86.6    31    1.6   191      3.3   931.2    0.00       0    99.0
 213    3:50   86.8    31    2.5   187      4.7   931.2    0.00       0    98.9
 213    4:00   87.4    32    3.4   200      8.4   931.1    0.00       0    98.8
 213    4:10   87.0    35    2.3   220      5.0   931.2    0.00       0    98.7
 213    4:20   86.7    36    2.3   228      4.0   931.4    0.00       0    98.6
 213    4:30   86.5    37    2.4   232      4.2   931.5    0.00       0    98.5
 213    4:40   86.4    37    2.8   229      5.3   931.6    0.00       0    98.4
 213    4:50   86.4    37    2.6   224      5.1   931.6    0.00       0    98.3
 213    5:00   86.3    38    2.6   233      4.9   931.7    0.00       2    98.2
 213    5:10   86.3    37    3.6   234      7.3   931.8    0.00      10    98.1
 213    5:20   86.4    37    3.3   212      8.0   931.9    0.00      20    98.0
 213    5:30   86.5    37    2.7   219      4.5   932.0    0.00      26    98.0
 213    5:40   86.7    37    1.8   170      3.9   932.2    0.00      34    97.9
 213    5:50   87.0    37    2.1   212      4.9   932.3    0.00      43    97.8
 213    6:00   86.8    37    2.9   184      6.2   932.4    0.00      53    97.7
 213    6:10   87.0    37    4.0   174      8.8   932.5    0.00      67    97.6
 213    6:20   87.0    37    4.3   178     10.4   932.7    0.00      79    97.6
 213    6:30   87.0    37    5.4   170      9.7   932.9    0.00      99    97.5
 213    6:40   87.0    36    5.7   168     12.9   933.0    0.00     110    97.4
 213    6:50   87.0    36    6.3   177     16.8   933.2    0.00     102    97.4
 213    7:00   86.9    36    5.9   180     13.6   933.3    0.00      81    97.3
 213    7:10   86.2    38    7.0   178     13.4   933.5    0.00      74    97.2
 213    7:20   86.0    38    5.9   179     14.2   933.5    0.00      76    97.2
 213    7:30   85.7    38    6.3   168     17.6   933.6    0.00      78    97.2
 213    7:40   85.3    40    7.3   172     14.0   933.6    0.00      84    97.1
 213    7:50   84.9    41    6.5   180     17.5   933.6    0.00      81    97.1
 213    8:00   85.0    41    6.2   190     10.2   933.6    0.00      81    97.0
 213    8:10   84.9    41    7.0   196     14.5   933.6    0.00      79    97.0
 213    8:20   84.7    41    7.7   185     11.9   933.7    0.00      79    96.9
 213    8:30   84.6    43    7.6   184     11.7   933.8    0.00      86    96.9
 213    8:40   84.0    46    8.0   180     12.3   933.8    0.00     116    96.9
 213    8:50   83.9    44    8.8   187     14.1   933.7    0.00     149    96.8
 213    9:00   84.5    41    8.4   169     14.9   933.7    0.00     179    96.8
 213    9:10   84.4    42    8.7   183     13.7   933.8    0.00     196    96.8
 213    9:20   85.0    40    8.2   173     15.4   933.8    0.00     203    96.7
 213    9:30   85.9    39    6.6   188     12.2   934.0    0.00     218    96.7
 213    9:40   84.9    42    8.2   212     13.6   934.2    0.00     222    96.6
 213    9:50   83.0    46    9.0   215     14.4   934.5    0.00     225    96.5
 213   10:00   81.9    48   10.8   231     17.7   934.6    0.00     218    96.5
 213   10:10   80.7    51   11.4   230     19.8   934.6    0.00     211    96.5
 213   10:20   80.5    50   11.4   223     20.9   934.7    0.00     202    96.5
 213   10:30   80.5    50   10.3   216     15.9   934.6    0.00     195    96.5
 213   10:40   81.2    48    8.8   215     14.5   934.5    0.00     194    96.5
 213   10:50   81.3    49    8.2   218     13.4   934.5    0.00     199    96.4
 213   11:00   81.0    50    8.0   223     13.3   934.5    0.00     218    96.4
 213   11:10   81.6    50    7.5   219     12.6   934.4    0.00     250    96.4
 213   11:20   82.1    48    6.8   218     11.7   934.5    0.00     291    96.4
 213   11:30   82.5    48    7.5   224     12.6   934.6    0.00     287    96.4
 213   11:40   82.5    48    6.8   226     11.4   934.6    0.00     279    96.3
 213   11:50   82.7    47    7.1   218     10.9   934.7    0.00     250    96.3
 213   12:00   82.9    46    7.4   219     12.1   934.7    0.00     208    96.3
 213   12:10   82.9    45    8.4   218     12.4   934.6    0.00     196    96.3
 213   12:20   83.3    45    7.0   221     11.5   934.4    0.00     197    96.3
 213   12:30   84.1    44    5.4   218      8.6   934.3    0.00     201    96.3
 213   12:40   84.8    41    3.9   247     10.4   934.3    0.00     196    96.3
 213   12:50   85.2    39    3.9   248     10.4   934.3    0.00     183    96.3
 213   13:00   85.0    40    4.6   232      8.5   934.3    0.00     150    96.3
 213   13:10   84.7    41    4.6   234      9.2   934.3    0.00     137    96.2
 213   13:20   84.7    41    3.2   233      6.0   934.3    0.00     147    96.2
 213   13:30   84.7    42    2.4   276      6.8   934.3    0.00     152    96.2
 213   13:40   84.7    41    3.2   262      7.7   934.1    0.00     173    96.2
 213   13:50   84.8    40    3.2   275      9.4   933.9    0.00     173    96.2
 213   14:00   84.5    40    3.5   292      9.3   933.7    0.00     173    96.2
 213   14:10   84.6    37    4.5   311     12.1   933.4    0.00     193    96.1
 213   14:20   84.3    40    4.9   301     11.6   933.1    0.00     203    96.2
 213   14:30   84.3    40    5.3   306     13.9   932.8    0.00     234    96.1
 213   14:40   84.5    40    5.1   304     11.3   932.5    0.00     220    96.1
 213   14:50   84.6    39    5.0   299     11.5   932.4    0.00     199    96.1
 213   15:00   84.6    39    3.4   314     12.6   932.4    0.00     175    96.1
 213   15:10   85.0    38    3.1   356      9.3   932.3    0.00     154    96.1
 213   15:20   85.5    36    3.1    17      6.2   932.3    0.00     145    96.1
 213   15:30   85.1    39    4.3    26     10.0   932.3    0.00     154    96.1
 213   15:40   84.5    41    3.9    14      7.7   932.2    0.00     129    96.1
 213   15:50   84.1    41    4.2    19      7.2   932.0    0.00     119    96.0
 213   16:00   84.0    42    3.4    21      7.7   931.8    0.00     127    96.0
 213   16:10   84.4    41    3.9    29      7.2   931.7    0.00     155    96.0
 213   16:20   84.5    41    3.8    19      7.7   931.7    0.00     172    96.0
 213   16:30   84.3    41    3.5    36      7.1   931.7    0.00     176    96.0
 213   16:40   84.1    41    3.8    24      6.7   931.8    0.00     137    96.0
 213   16:50   84.0    41    3.1    15      6.4   931.6    0.00      88    96.0

Return to Boulder City, Nevada graphs page.


Western Regional Climate Center,wrcc@dri.edu